Hauptseite
METAR-TAF:

METAR-TAF

Flughäfen :

Roatán, Honduras

Breite: 16-19N, Länge: 086-31W, Höhe: 5 m

Beobachtung

Neuester Wetterbericht von vor 22 Minuten, um 08:00 UTC
Wind 13 kt aus Ost
Temperatur 29°C
Luftfeuchtigkeit 79%
Luftdruck 1015 hPa
Sichtweite 10 km oder mehr
Leicht bewölkt in der Höhe von 2200 ft

METAR: MHRO 240800Z 10013KT 9999 FEW022 29/25 Q1015 A2997 NOSIG

Zeit: 02:22 (08:22 UTC)

Prognose

Neuester Wetterbericht von vor 4 Stunden und 22 Minuten, um 04:00 UTC
Gültige Prognose vom 24 um 06 UTC bis 25 um 06 UTC
Wind 15 kt aus Ost
Sichtweite 10 km oder mehr
Leicht bewölkt in der Höhe von 2200 ft

TAF: MHRO 240400Z 2406/2506 09015KT 9999 FEW022 TX31/2419Z TN28/2412Z

Wetterbeobachtungen und Prognosen von mehr als 4000 Flughäfen (METAR und TAF Bericht).

Die verfügbaren Stationen werden durch gelbe und rote Markierungen auf der Karte dargestellt.

Führen Sie die Maus auf sie, um den Namen der Station zu sehen.

Darauf klicken, um die Beobachtung von Wetterbeobachtungen und Prognosen zu sehen.

Um die Karte zu ändern : klicken Sie auf den grünen Tasten mit einem schwarzen Kreuz Zum Vergrößern, auf den grünen Button mit einem Gedankenstrich zu verkleinern, oder auf die grünen Pfeile für benachbarte Karten.


METAR-TAF: